sensor_id;sensor_type;location;lat;lon;timestamp;P1;durP1;ratioP1;P2;durP2;ratioP2
52158;SDS011;38145;53.182;6.284;2023-04-30T00:00:54;4.28;;;3.75;;
52158;SDS011;38145;53.182;6.284;2023-04-30T00:03:20;7.03;;;3.90;;
52158;SDS011;38145;53.182;6.284;2023-04-30T00:05:49;2.80;;;2.60;;
52158;SDS011;38145;53.182;6.284;2023-04-30T00:08:16;3.95;;;3.28;;
52158;SDS011;38145;53.182;6.284;2023-04-30T00:13:10;4.30;;;3.90;;
52158;SDS011;38145;53.182;6.284;2023-04-30T00:15:38;9.20;;;4.45;;
52158;SDS011;38145;53.182;6.284;2023-04-30T00:18:05;9.38;;;5.25;;
52158;SDS011;38145;53.182;6.284;2023-04-30T00:20:32;6.55;;;5.18;;
52158;SDS011;38145;53.182;6.284;2023-04-30T00:25:25;7.78;;;5.30;;
52158;SDS011;38145;53.182;6.284;2023-04-30T00:27:51;5.97;;;4.47;;
52158;SDS011;38145;53.182;6.284;2023-04-30T00:30:18;5.60;;;4.65;;
52158;SDS011;38145;53.182;6.284;2023-04-30T00:32:44;5.43;;;4.15;;
52158;SDS011;38145;53.182;6.284;2023-04-30T00:35:11;5.83;;;3.53;;
52158;SDS011;38145;53.182;6.284;2023-04-30T00:37:37;4.47;;;3.95;;
52158;SDS011;38145;53.182;6.284;2023-04-30T00:40:03;8.73;;;4.15;;
52158;SDS011;38145;53.182;6.284;2023-04-30T00:42:30;8.65;;;4.40;;
52158;SDS011;38145;53.182;6.284;2023-04-30T00:44:56;5.95;;;4.72;;
52158;SDS011;38145;53.182;6.284;2023-04-30T00:47:22;7.72;;;4.72;;
52158;SDS011;38145;53.182;6.284;2023-04-30T00:49:48;3.92;;;3.53;;
52158;SDS011;38145;53.182;6.284;2023-04-30T00:52:15;7.47;;;3.70;;
52158;SDS011;38145;53.182;6.284;2023-04-30T00:54:42;5.15;;;4.45;;
52158;SDS011;38145;53.182;6.284;2023-04-30T00:57:09;7.47;;;4.00;;
52158;SDS011;38145;53.182;6.284;2023-04-30T00:59:38;6.18;;;3.90;;
52158;SDS011;38145;53.182;6.284;2023-04-30T01:02:06;4.93;;;4.00;;
52158;SDS011;38145;53.182;6.284;2023-04-30T01:04:33;4.72;;;4.03;;
52158;SDS011;38145;53.182;6.284;2023-04-30T01:07:04;4.88;;;3.92;;
52158;SDS011;38145;53.182;6.284;2023-04-30T01:09:32;7.50;;;3.88;;
52158;SDS011;38145;53.182;6.284;2023-04-30T01:12:04;7.32;;;4.55;;
52158;SDS011;38145;53.182;6.284;2023-04-30T01:14:52;11.55;;;4.72;;
52158;SDS011;38145;53.182;6.284;2023-04-30T01:20:04;6.65;;;4.38;;
52158;SDS011;38145;53.182;6.284;2023-04-30T01:22:35;5.93;;;4.03;;
52158;SDS011;38145;53.182;6.284;2023-04-30T01:30:28;3.47;;;2.40;;
52158;SDS011;38145;53.182;6.284;2023-04-30T01:32:56;7.72;;;3.72;;
52158;SDS011;38145;53.182;6.284;2023-04-30T01:38:24;5.75;;;4.55;;
52158;SDS011;38145;53.182;6.284;2023-04-30T01:43:32;5.60;;;3.97;;
52158;SDS011;38145;53.182;6.284;2023-04-30T01:46:23;8.13;;;4.55;;
52158;SDS011;38145;53.182;6.284;2023-04-30T01:49:06;7.90;;;4.57;;
52158;SDS011;38145;53.182;6.284;2023-04-30T01:51:57;9.45;;;4.18;;
52158;SDS011;38145;53.182;6.284;2023-04-30T01:54:37;3.90;;;3.35;;
52158;SDS011;38145;53.182;6.284;2023-04-30T01:57:25;5.40;;;3.50;;
52158;SDS011;38145;53.182;6.284;2023-04-30T01:59:56;8.65;;;4.47;;
52158;SDS011;38145;53.182;6.284;2023-04-30T02:02:22;5.45;;;3.97;;
52158;SDS011;38145;53.182;6.284;2023-04-30T02:04:48;7.50;;;4.28;;
52158;SDS011;38145;53.182;6.284;2023-04-30T02:07:16;4.95;;;3.97;;
52158;SDS011;38145;53.182;6.284;2023-04-30T02:09:52;8.02;;;3.17;;
52158;SDS011;38145;53.182;6.284;2023-04-30T02:12:19;5.53;;;3.63;;
52158;SDS011;38145;53.182;6.284;2023-04-30T02:14:46;5.45;;;3.50;;
52158;SDS011;38145;53.182;6.284;2023-04-30T02:17:12;5.47;;;3.63;;
52158;SDS011;38145;53.182;6.284;2023-04-30T02:19:38;4.97;;;3.25;;
52158;SDS011;38145;53.182;6.284;2023-04-30T02:22:04;7.60;;;3.38;;
52158;SDS011;38145;53.182;6.284;2023-04-30T02:24:30;4.32;;;3.53;;
52158;SDS011;38145;53.182;6.284;2023-04-30T02:26:56;5.70;;;3.80;;
52158;SDS011;38145;53.182;6.284;2023-04-30T02:29:22;6.38;;;4.10;;
52158;SDS011;38145;53.182;6.284;2023-04-30T02:31:48;6.78;;;3.80;;
52158;SDS011;38145;53.182;6.284;2023-04-30T02:34:15;7.55;;;4.50;;
52158;SDS011;38145;53.182;6.284;2023-04-30T02:36:41;7.43;;;3.83;;
52158;SDS011;38145;53.182;6.284;2023-04-30T02:39:07;9.45;;;4.40;;
52158;SDS011;38145;53.182;6.284;2023-04-30T02:41:34;7.22;;;5.00;;
52158;SDS011;38145;53.182;6.284;2023-04-30T02:44:00;9.73;;;5.00;;
52158;SDS011;38145;53.182;6.284;2023-04-30T02:46:27;10.75;;;5.63;;
52158;SDS011;38145;53.182;6.284;2023-04-30T02:48:53;8.20;;;4.50;;
52158;SDS011;38145;53.182;6.284;2023-04-30T02:51:19;6.35;;;4.20;;
52158;SDS011;38145;53.182;6.284;2023-04-30T02:53:45;6.93;;;4.53;;
52158;SDS011;38145;53.182;6.284;2023-04-30T02:56:11;8.05;;;5.40;;
52158;SDS011;38145;53.182;6.284;2023-04-30T02:58:37;7.32;;;5.53;;
52158;SDS011;38145;53.182;6.284;2023-04-30T03:01:04;9.30;;;5.25;;
52158;SDS011;38145;53.182;6.284;2023-04-30T03:03:30;6.90;;;4.93;;
52158;SDS011;38145;53.182;6.284;2023-04-30T03:05:58;11.57;;;5.27;;
52158;SDS011;38145;53.182;6.284;2023-04-30T03:08:24;9.77;;;5.07;;
52158;SDS011;38145;53.182;6.284;2023-04-30T03:10:51;9.90;;;5.35;;
52158;SDS011;38145;53.182;6.284;2023-04-30T03:13:17;9.13;;;4.72;;
52158;SDS011;38145;53.182;6.284;2023-04-30T03:15:43;12.93;;;7.55;;
52158;SDS011;38145;53.182;6.284;2023-04-30T03:18:09;8.50;;;6.00;;
52158;SDS011;38145;53.182;6.284;2023-04-30T03:20:35;10.55;;;5.63;;
52158;SDS011;38145;53.182;6.284;2023-04-30T03:23:02;8.10;;;5.28;;
52158;SDS011;38145;53.182;6.284;2023-04-30T03:25:28;11.05;;;5.65;;
52158;SDS011;38145;53.182;6.284;2023-04-30T03:27:54;12.98;;;5.55;;
52158;SDS011;38145;53.182;6.284;2023-04-30T03:30:20;9.52;;;5.47;;
52158;SDS011;38145;53.182;6.284;2023-04-30T03:32:46;7.47;;;5.35;;
52158;SDS011;38145;53.182;6.284;2023-04-30T03:35:12;11.18;;;5.15;;
52158;SDS011;38145;53.182;6.284;2023-04-30T03:37:39;6.55;;;4.95;;
52158;SDS011;38145;53.182;6.284;2023-04-30T03:40:05;11.48;;;5.75;;
52158;SDS011;38145;53.182;6.284;2023-04-30T03:42:32;11.00;;;5.63;;
52158;SDS011;38145;53.182;6.284;2023-04-30T03:44:58;8.23;;;5.50;;
52158;SDS011;38145;53.182;6.284;2023-04-30T03:47:24;10.05;;;5.97;;
52158;SDS011;38145;53.182;6.284;2023-04-30T03:49:51;8.57;;;5.07;;
52158;SDS011;38145;53.182;6.284;2023-04-30T03:52:19;11.38;;;5.22;;
52158;SDS011;38145;53.182;6.284;2023-04-30T03:54:46;8.07;;;5.27;;
52158;SDS011;38145;53.182;6.284;2023-04-30T03:57:12;11.20;;;4.65;;
52158;SDS011;38145;53.182;6.284;2023-04-30T03:59:39;9.20;;;4.72;;
52158;SDS011;38145;53.182;6.284;2023-04-30T04:02:06;9.40;;;5.05;;
52158;SDS011;38145;53.182;6.284;2023-04-30T04:04:32;11.98;;;5.00;;
52158;SDS011;38145;53.182;6.284;2023-04-30T04:06:59;7.40;;;4.90;;
52158;SDS011;38145;53.182;6.284;2023-04-30T04:11:52;7.25;;;4.18;;
52158;SDS011;38145;53.182;6.284;2023-04-30T04:14:19;9.02;;;5.03;;
52158;SDS011;38145;53.182;6.284;2023-04-30T04:16:45;7.95;;;5.13;;
52158;SDS011;38145;53.182;6.284;2023-04-30T04:19:11;9.07;;;4.88;;
52158;SDS011;38145;53.182;6.284;2023-04-30T04:21:37;8.40;;;4.43;;
52158;SDS011;38145;53.182;6.284;2023-04-30T04:24:04;7.75;;;4.95;;
52158;SDS011;38145;53.182;6.284;2023-04-30T04:26:34;8.85;;;5.57;;
52158;SDS011;38145;53.182;6.284;2023-04-30T04:29:02;12.38;;;4.82;;
52158;SDS011;38145;53.182;6.284;2023-04-30T04:31:29;8.55;;;4.28;;
52158;SDS011;38145;53.182;6.284;2023-04-30T04:33:58;12.57;;;4.23;;
52158;SDS011;38145;53.182;6.284;2023-04-30T04:36:25;6.45;;;4.32;;
52158;SDS011;38145;53.182;6.284;2023-04-30T04:38:53;11.00;;;4.82;;
52158;SDS011;38145;53.182;6.284;2023-04-30T04:41:22;9.75;;;4.88;;
52158;SDS011;38145;53.182;6.284;2023-04-30T04:43:48;9.55;;;4.88;;
52158;SDS011;38145;53.182;6.284;2023-04-30T04:46:15;16.25;;;4.90;;
52158;SDS011;38145;53.182;6.284;2023-04-30T04:48:41;7.88;;;4.70;;
52158;SDS011;38145;53.182;6.284;2023-04-30T04:51:08;7.83;;;4.40;;
52158;SDS011;38145;53.182;6.284;2023-04-30T04:53:35;7.88;;;5.93;;
52158;SDS011;38145;53.182;6.284;2023-04-30T04:56:01;8.40;;;4.95;;
52158;SDS011;38145;53.182;6.284;2023-04-30T04:58:27;9.02;;;4.72;;
52158;SDS011;38145;53.182;6.284;2023-04-30T05:00:53;7.78;;;4.05;;
52158;SDS011;38145;53.182;6.284;2023-04-30T05:03:21;10.13;;;4.63;;
52158;SDS011;38145;53.182;6.284;2023-04-30T05:05:47;8.52;;;4.85;;
52158;SDS011;38145;53.182;6.284;2023-04-30T05:08:13;10.80;;;4.72;;
52158;SDS011;38145;53.182;6.284;2023-04-30T05:10:39;9.40;;;4.40;;
52158;SDS011;38145;53.182;6.284;2023-04-30T05:13:05;6.50;;;3.97;;
52158;SDS011;38145;53.182;6.284;2023-04-30T05:15:31;13.60;;;5.82;;
52158;SDS011;38145;53.182;6.284;2023-04-30T05:17:57;10.30;;;4.90;;
52158;SDS011;38145;53.182;6.284;2023-04-30T05:20:23;8.57;;;4.30;;
52158;SDS011;38145;53.182;6.284;2023-04-30T05:22:49;9.18;;;4.55;;
52158;SDS011;38145;53.182;6.284;2023-04-30T05:25:16;13.00;;;4.47;;
52158;SDS011;38145;53.182;6.284;2023-04-30T05:27:42;13.10;;;5.28;;
52158;SDS011;38145;53.182;6.284;2023-04-30T05:30:08;9.48;;;4.28;;
52158;SDS011;38145;53.182;6.284;2023-04-30T05:32:34;9.40;;;4.97;;
52158;SDS011;38145;53.182;6.284;2023-04-30T05:35:00;13.95;;;4.75;;
52158;SDS011;38145;53.182;6.284;2023-04-30T05:37:26;8.50;;;4.55;;
52158;SDS011;38145;53.182;6.284;2023-04-30T05:39:52;14.57;;;4.95;;
52158;SDS011;38145;53.182;6.284;2023-04-30T05:42:18;11.98;;;4.90;;
52158;SDS011;38145;53.182;6.284;2023-04-30T05:44:45;9.88;;;4.40;;
52158;SDS011;38145;53.182;6.284;2023-04-30T05:47:11;11.52;;;4.90;;
52158;SDS011;38145;53.182;6.284;2023-04-30T05:49:37;10.48;;;4.78;;
52158;SDS011;38145;53.182;6.284;2023-04-30T05:52:03;12.75;;;5.43;;
52158;SDS011;38145;53.182;6.284;2023-04-30T05:54:29;12.60;;;5.55;;
52158;SDS011;38145;53.182;6.284;2023-04-30T05:56:55;10.02;;;4.68;;
52158;SDS011;38145;53.182;6.284;2023-04-30T05:59:21;14.00;;;5.72;;
52158;SDS011;38145;53.182;6.284;2023-04-30T06:01:47;17.98;;;5.20;;
52158;SDS011;38145;53.182;6.284;2023-04-30T06:04:13;12.80;;;4.53;;
52158;SDS011;38145;53.182;6.284;2023-04-30T06:06:39;14.23;;;4.63;;
52158;SDS011;38145;53.182;6.284;2023-04-30T06:09:05;13.65;;;5.22;;
52158;SDS011;38145;53.182;6.284;2023-04-30T06:11:31;17.33;;;5.47;;
52158;SDS011;38145;53.182;6.284;2023-04-30T06:13:57;11.30;;;4.35;;
52158;SDS011;38145;53.182;6.284;2023-04-30T06:16:23;9.48;;;3.95;;
52158;SDS011;38145;53.182;6.284;2023-04-30T06:18:49;10.85;;;4.78;;
52158;SDS011;38145;53.182;6.284;2023-04-30T06:21:15;15.57;;;4.57;;
52158;SDS011;38145;53.182;6.284;2023-04-30T06:23:41;6.47;;;3.75;;
52158;SDS011;38145;53.182;6.284;2023-04-30T06:26:06;9.23;;;4.25;;
52158;SDS011;38145;53.182;6.284;2023-04-30T06:28:32;11.85;;;4.55;;
52158;SDS011;38145;53.182;6.284;2023-04-30T06:30:59;11.43;;;4.47;;
52158;SDS011;38145;53.182;6.284;2023-04-30T06:33:28;10.00;;;4.07;;
52158;SDS011;38145;53.182;6.284;2023-04-30T06:35:54;13.02;;;5.25;;
52158;SDS011;38145;53.182;6.284;2023-04-30T06:38:20;10.63;;;4.40;;
52158;SDS011;38145;53.182;6.284;2023-04-30T06:40:46;15.57;;;4.35;;
52158;SDS011;38145;53.182;6.284;2023-04-30T06:43:12;7.53;;;4.20;;
52158;SDS011;38145;53.182;6.284;2023-04-30T06:45:38;12.38;;;4.28;;
52158;SDS011;38145;53.182;6.284;2023-04-30T06:48:04;13.25;;;4.45;;
52158;SDS011;38145;53.182;6.284;2023-04-30T06:50:30;14.90;;;4.55;;
52158;SDS011;38145;53.182;6.284;2023-04-30T06:52:56;15.25;;;4.25;;
52158;SDS011;38145;53.182;6.284;2023-04-30T06:55:22;12.10;;;4.30;;
52158;SDS011;38145;53.182;6.284;2023-04-30T06:57:48;14.48;;;4.15;;
52158;SDS011;38145;53.182;6.284;2023-04-30T07:00:14;13.63;;;4.00;;
52158;SDS011;38145;53.182;6.284;2023-04-30T07:02:40;12.43;;;4.00;;
52158;SDS011;38145;53.182;6.284;2023-04-30T07:05:06;15.18;;;3.80;;
52158;SDS011;38145;53.182;6.284;2023-04-30T07:07:33;11.10;;;3.83;;
52158;SDS011;38145;53.182;6.284;2023-04-30T07:09:59;11.60;;;4.28;;
52158;SDS011;38145;53.182;6.284;2023-04-30T07:12:25;8.13;;;3.58;;
52158;SDS011;38145;53.182;6.284;2023-04-30T07:14:51;13.52;;;5.00;;
52158;SDS011;38145;53.182;6.284;2023-04-30T07:17:17;15.23;;;4.28;;
52158;SDS011;38145;53.182;6.284;2023-04-30T07:19:43;16.58;;;4.88;;
52158;SDS011;38145;53.182;6.284;2023-04-30T07:22:09;15.93;;;5.55;;
52158;SDS011;38145;53.182;6.284;2023-04-30T07:24:35;11.65;;;3.75;;
52158;SDS011;38145;53.182;6.284;2023-04-30T07:27:01;20.17;;;3.70;;
52158;SDS011;38145;53.182;6.284;2023-04-30T07:29:28;9.07;;;3.08;;
52158;SDS011;38145;53.182;6.284;2023-04-30T07:31:54;15.43;;;5.03;;
52158;SDS011;38145;53.182;6.284;2023-04-30T07:34:22;16.40;;;4.28;;
52158;SDS011;38145;53.182;6.284;2023-04-30T07:36:49;15.00;;;3.55;;
52158;SDS011;38145;53.182;6.284;2023-04-30T07:39:15;21.67;;;3.67;;
52158;SDS011;38145;53.182;6.284;2023-04-30T07:41:42;13.85;;;3.63;;
52158;SDS011;38145;53.182;6.284;2023-04-30T07:44:07;11.10;;;4.57;;
52158;SDS011;38145;53.182;6.284;2023-04-30T07:46:35;18.75;;;3.80;;
52158;SDS011;38145;53.182;6.284;2023-04-30T07:49:01;9.15;;;3.15;;
52158;SDS011;38145;53.182;6.284;2023-04-30T07:51:28;13.57;;;3.55;;
52158;SDS011;38145;53.182;6.284;2023-04-30T07:53:55;12.52;;;3.67;;
52158;SDS011;38145;53.182;6.284;2023-04-30T07:56:22;14.15;;;3.80;;
52158;SDS011;38145;53.182;6.284;2023-04-30T07:58:49;8.77;;;3.40;;
52158;SDS011;38145;53.182;6.284;2023-04-30T08:01:15;10.52;;;3.13;;
52158;SDS011;38145;53.182;6.284;2023-04-30T08:03:41;10.50;;;3.40;;
52158;SDS011;38145;53.182;6.284;2023-04-30T08:06:08;9.23;;;2.90;;
52158;SDS011;38145;53.182;6.284;2023-04-30T08:08:34;7.68;;;3.17;;
52158;SDS011;38145;53.182;6.284;2023-04-30T08:11:00;14.02;;;3.65;;
52158;SDS011;38145;53.182;6.284;2023-04-30T08:13:26;10.82;;;3.28;;
52158;SDS011;38145;53.182;6.284;2023-04-30T08:15:52;7.38;;;2.97;;
52158;SDS011;38145;53.182;6.284;2023-04-30T08:18:18;12.27;;;3.60;;
52158;SDS011;38145;53.182;6.284;2023-04-30T08:20:43;10.10;;;3.45;;
52158;SDS011;38145;53.182;6.284;2023-04-30T08:23:10;16.38;;;3.25;;
52158;SDS011;38145;53.182;6.284;2023-04-30T08:25:36;14.13;;;2.80;;
52158;SDS011;38145;53.182;6.284;2023-04-30T08:28:02;10.20;;;3.75;;
52158;SDS011;38145;53.182;6.284;2023-04-30T08:30:28;10.20;;;2.85;;
52158;SDS011;38145;53.182;6.284;2023-04-30T08:32:54;7.85;;;2.80;;
52158;SDS011;38145;53.182;6.284;2023-04-30T08:35:20;12.10;;;3.63;;
52158;SDS011;38145;53.182;6.284;2023-04-30T08:37:45;10.10;;;3.28;;
52158;SDS011;38145;53.182;6.284;2023-04-30T08:40:11;12.82;;;3.53;;
52158;SDS011;38145;53.182;6.284;2023-04-30T08:42:40;8.88;;;2.65;;
52158;SDS011;38145;53.182;6.284;2023-04-30T08:45:10;7.90;;;2.60;;
52158;SDS011;38145;53.182;6.284;2023-04-30T08:47:37;8.65;;;2.50;;
52158;SDS011;38145;53.182;6.284;2023-04-30T08:50:04;14.43;;;3.22;;
52158;SDS011;38145;53.182;6.284;2023-04-30T08:52:30;11.87;;;2.57;;
52158;SDS011;38145;53.182;6.284;2023-04-30T08:54:59;9.65;;;3.00;;
52158;SDS011;38145;53.182;6.284;2023-04-30T08:57:26;10.57;;;3.08;;
52158;SDS011;38145;53.182;6.284;2023-04-30T08:59:53;6.88;;;2.60;;
52158;SDS011;38145;53.182;6.284;2023-04-30T09:02:19;9.25;;;2.65;;
52158;SDS011;38145;53.182;6.284;2023-04-30T09:04:47;8.30;;;3.40;;
52158;SDS011;38145;53.182;6.284;2023-04-30T09:07:14;7.32;;;2.33;;
52158;SDS011;38145;53.182;6.284;2023-04-30T09:09:42;9.65;;;2.30;;
52158;SDS011;38145;53.182;6.284;2023-04-30T09:12:10;5.30;;;2.22;;
52158;SDS011;38145;53.182;6.284;2023-04-30T09:14:38;8.50;;;2.75;;
52158;SDS011;38145;53.182;6.284;2023-04-30T09:17:04;9.65;;;2.67;;
52158;SDS011;38145;53.182;6.284;2023-04-30T09:19:31;10.02;;;3.05;;
52158;SDS011;38145;53.182;6.284;2023-04-30T09:21:57;8.50;;;2.65;;
52158;SDS011;38145;53.182;6.284;2023-04-30T09:24:23;7.82;;;4.18;;
52158;SDS011;38145;53.182;6.284;2023-04-30T09:26:49;7.45;;;2.65;;
52158;SDS011;38145;53.182;6.284;2023-04-30T09:29:16;7.07;;;2.30;;
52158;SDS011;38145;53.182;6.284;2023-04-30T09:31:44;7.90;;;2.38;;
52158;SDS011;38145;53.182;6.284;2023-04-30T09:34:11;7.38;;;2.45;;
52158;SDS011;38145;53.182;6.284;2023-04-30T09:36:50;7.97;;;2.33;;
52158;SDS011;38145;53.182;6.284;2023-04-30T09:39:19;7.28;;;2.58;;
52158;SDS011;38145;53.182;6.284;2023-04-30T09:41:45;9.70;;;2.25;;
52158;SDS011;38145;53.182;6.284;2023-04-30T09:44:27;9.52;;;2.55;;
52158;SDS011;38145;53.182;6.284;2023-04-30T09:46:57;12.20;;;3.15;;
52158;SDS011;38145;53.182;6.284;2023-04-30T09:49:24;8.02;;;2.50;;
52158;SDS011;38145;53.182;6.284;2023-04-30T09:51:55;8.07;;;2.50;;
52158;SDS011;38145;53.182;6.284;2023-04-30T09:54:23;9.10;;;2.70;;
52158;SDS011;38145;53.182;6.284;2023-04-30T09:56:53;8.93;;;2.72;;
52158;SDS011;38145;53.182;6.284;2023-04-30T09:59:23;11.90;;;3.17;;
52158;SDS011;38145;53.182;6.284;2023-04-30T10:01:55;11.68;;;3.00;;
52158;SDS011;38145;53.182;6.284;2023-04-30T10:04:25;10.52;;;2.90;;
52158;SDS011;38145;53.182;6.284;2023-04-30T10:06:53;8.98;;;2.85;;
52158;SDS011;38145;53.182;6.284;2023-04-30T10:09:25;9.07;;;3.05;;
52158;SDS011;38145;53.182;6.284;2023-04-30T10:11:56;8.93;;;2.60;;
52158;SDS011;38145;53.182;6.284;2023-04-30T10:14:22;11.57;;;2.72;;
52158;SDS011;38145;53.182;6.284;2023-04-30T10:16:54;9.23;;;2.65;;
52158;SDS011;38145;53.182;6.284;2023-04-30T10:19:24;11.40;;;2.90;;
52158;SDS011;38145;53.182;6.284;2023-04-30T10:21:53;16.27;;;2.67;;
52158;SDS011;38145;53.182;6.284;2023-04-30T10:24:20;10.18;;;2.50;;
52158;SDS011;38145;53.182;6.284;2023-04-30T10:26:46;11.20;;;2.65;;
52158;SDS011;38145;53.182;6.284;2023-04-30T10:29:13;9.35;;;2.85;;
52158;SDS011;38145;53.182;6.284;2023-04-30T10:31:40;8.73;;;3.10;;
52158;SDS011;38145;53.182;6.284;2023-04-30T10:34:27;6.47;;;2.45;;
52158;SDS011;38145;53.182;6.284;2023-04-30T10:37:04;9.45;;;2.75;;
52158;SDS011;38145;53.182;6.284;2023-04-30T10:39:36;11.88;;;3.08;;
52158;SDS011;38145;53.182;6.284;2023-04-30T10:42:03;7.65;;;2.42;;
52158;SDS011;38145;53.182;6.284;2023-04-30T10:44:31;9.15;;;4.13;;
52158;SDS011;38145;53.182;6.284;2023-04-30T10:49:26;6.47;;;2.50;;
52158;SDS011;38145;53.182;6.284;2023-04-30T10:51:51;8.65;;;2.80;;
52158;SDS011;38145;53.182;6.284;2023-04-30T10:54:23;6.82;;;2.80;;
52158;SDS011;38145;53.182;6.284;2023-04-30T10:56:52;7.30;;;2.40;;
52158;SDS011;38145;53.182;6.284;2023-04-30T10:59:20;11.63;;;2.53;;
52158;SDS011;38145;53.182;6.284;2023-04-30T11:04:22;8.90;;;2.35;;
52158;SDS011;38145;53.182;6.284;2023-04-30T11:06:49;8.07;;;2.78;;
52158;SDS011;38145;53.182;6.284;2023-04-30T11:09:38;8.13;;;2.30;;
52158;SDS011;38145;53.182;6.284;2023-04-30T11:12:10;11.75;;;2.78;;
52158;SDS011;38145;53.182;6.284;2023-04-30T11:14:40;6.38;;;2.83;;
52158;SDS011;38145;53.182;6.284;2023-04-30T11:17:08;4.95;;;2.20;;
52158;SDS011;38145;53.182;6.284;2023-04-30T11:19:45;4.97;;;2.30;;
52158;SDS011;38145;53.182;6.284;2023-04-30T11:27:25;8.32;;;2.45;;
52158;SDS011;38145;53.182;6.284;2023-04-30T11:32:19;6.13;;;2.15;;
52158;SDS011;38145;53.182;6.284;2023-04-30T11:37:17;8.07;;;2.83;;
52158;SDS011;38145;53.182;6.284;2023-04-30T11:39:46;6.63;;;3.08;;
52158;SDS011;38145;53.182;6.284;2023-04-30T11:42:17;7.68;;;2.55;;
52158;SDS011;38145;53.182;6.284;2023-04-30T11:44:43;5.32;;;2.45;;
52158;SDS011;38145;53.182;6.284;2023-04-30T11:47:11;6.32;;;3.03;;
52158;SDS011;38145;53.182;6.284;2023-04-30T11:49:38;8.68;;;2.90;;
52158;SDS011;38145;53.182;6.284;2023-04-30T11:52:05;8.85;;;2.53;;
52158;SDS011;38145;53.182;6.284;2023-04-30T11:54:35;5.95;;;2.75;;
52158;SDS011;38145;53.182;6.284;2023-04-30T11:57:02;5.13;;;2.15;;
52158;SDS011;38145;53.182;6.284;2023-04-30T11:59:29;7.05;;;2.75;;
52158;SDS011;38145;53.182;6.284;2023-04-30T12:01:56;9.40;;;3.10;;
52158;SDS011;38145;53.182;6.284;2023-04-30T12:04:23;4.75;;;2.80;;
52158;SDS011;38145;53.182;6.284;2023-04-30T12:06:50;8.73;;;2.22;;
52158;SDS011;38145;53.182;6.284;2023-04-30T12:09:16;4.30;;;1.83;;
52158;SDS011;38145;53.182;6.284;2023-04-30T12:11:42;5.32;;;2.38;;
52158;SDS011;38145;53.182;6.284;2023-04-30T12:14:09;6.88;;;2.35;;
52158;SDS011;38145;53.182;6.284;2023-04-30T12:16:43;3.95;;;2.22;;
52158;SDS011;38145;53.182;6.284;2023-04-30T12:19:19;4.30;;;1.98;;
52158;SDS011;38145;53.182;6.284;2023-04-30T12:21:46;4.70;;;2.00;;
52158;SDS011;38145;53.182;6.284;2023-04-30T12:24:14;3.50;;;1.90;;
52158;SDS011;38145;53.182;6.284;2023-04-30T12:26:42;3.58;;;1.67;;
52158;SDS011;38145;53.182;6.284;2023-04-30T12:29:08;3.47;;;1.83;;
52158;SDS011;38145;53.182;6.284;2023-04-30T12:31:36;4.15;;;2.40;;
52158;SDS011;38145;53.182;6.284;2023-04-30T12:34:02;5.63;;;2.38;;
52158;SDS011;38145;53.182;6.284;2023-04-30T12:36:32;4.10;;;2.10;;
52158;SDS011;38145;53.182;6.284;2023-04-30T12:39:05;6.50;;;2.17;;
52158;SDS011;38145;53.182;6.284;2023-04-30T12:41:36;4.70;;;1.80;;
52158;SDS011;38145;53.182;6.284;2023-04-30T12:44:12;4.78;;;2.30;;
52158;SDS011;38145;53.182;6.284;2023-04-30T12:46:46;3.00;;;2.00;;
52158;SDS011;38145;53.182;6.284;2023-04-30T12:49:23;2.70;;;1.45;;
52158;SDS011;38145;53.182;6.284;2023-04-30T12:51:57;5.63;;;1.77;;
52158;SDS011;38145;53.182;6.284;2023-04-30T12:54:25;7.80;;;3.10;;
52158;SDS011;38145;53.182;6.284;2023-04-30T12:56:57;6.43;;;1.73;;
52158;SDS011;38145;53.182;6.284;2023-04-30T12:59:26;3.50;;;1.85;;
52158;SDS011;38145;53.182;6.284;2023-04-30T13:01:52;6.07;;;2.10;;
52158;SDS011;38145;53.182;6.284;2023-04-30T13:04:19;3.25;;;2.50;;
52158;SDS011;38145;53.182;6.284;2023-04-30T13:06:46;5.78;;;2.00;;
52158;SDS011;38145;53.182;6.284;2023-04-30T13:09:12;6.28;;;2.65;;
52158;SDS011;38145;53.182;6.284;2023-04-30T13:11:38;5.53;;;2.05;;
52158;SDS011;38145;53.182;6.284;2023-04-30T13:14:04;4.80;;;2.10;;
52158;SDS011;38145;53.182;6.284;2023-04-30T13:16:31;3.38;;;1.80;;
52158;SDS011;38145;53.182;6.284;2023-04-30T13:18:58;3.20;;;1.73;;
52158;SDS011;38145;53.182;6.284;2023-04-30T13:21:25;2.47;;;1.33;;
52158;SDS011;38145;53.182;6.284;2023-04-30T13:23:52;4.88;;;1.77;;
52158;SDS011;38145;53.182;6.284;2023-04-30T13:26:18;5.22;;;1.60;;
52158;SDS011;38145;53.182;6.284;2023-04-30T13:28:45;3.40;;;1.67;;
52158;SDS011;38145;53.182;6.284;2023-04-30T13:31:11;3.13;;;1.45;;
52158;SDS011;38145;53.182;6.284;2023-04-30T13:33:37;4.93;;;1.98;;
52158;SDS011;38145;53.182;6.284;2023-04-30T13:36:03;3.22;;;1.35;;
52158;SDS011;38145;53.182;6.284;2023-04-30T13:38:29;3.40;;;1.42;;
52158;SDS011;38145;53.182;6.284;2023-04-30T13:40:55;2.90;;;1.40;;
52158;SDS011;38145;53.182;6.284;2023-04-30T13:43:21;5.18;;;1.63;;
52158;SDS011;38145;53.182;6.284;2023-04-30T13:45:47;3.60;;;1.77;;
52158;SDS011;38145;53.182;6.284;2023-04-30T13:48:13;4.05;;;1.70;;
52158;SDS011;38145;53.182;6.284;2023-04-30T13:50:39;3.75;;;1.73;;
52158;SDS011;38145;53.182;6.284;2023-04-30T13:53:05;5.43;;;2.58;;
52158;SDS011;38145;53.182;6.284;2023-04-30T13:55:31;6.78;;;2.28;;
52158;SDS011;38145;53.182;6.284;2023-04-30T13:57:57;5.28;;;1.98;;
52158;SDS011;38145;53.182;6.284;2023-04-30T14:00:23;3.58;;;1.58;;
52158;SDS011;38145;53.182;6.284;2023-04-30T14:02:50;4.23;;;2.07;;
52158;SDS011;38145;53.182;6.284;2023-04-30T14:05:17;4.93;;;1.80;;
52158;SDS011;38145;53.182;6.284;2023-04-30T14:07:43;3.50;;;1.90;;
52158;SDS011;38145;53.182;6.284;2023-04-30T14:10:08;4.35;;;2.17;;
52158;SDS011;38145;53.182;6.284;2023-04-30T14:12:35;3.20;;;1.52;;
52158;SDS011;38145;53.182;6.284;2023-04-30T14:15:02;7.13;;;2.00;;
52158;SDS011;38145;53.182;6.284;2023-04-30T14:17:31;3.17;;;1.95;;
52158;SDS011;38145;53.182;6.284;2023-04-30T14:19:56;4.35;;;2.13;;
52158;SDS011;38145;53.182;6.284;2023-04-30T14:22:22;8.48;;;2.40;;
52158;SDS011;38145;53.182;6.284;2023-04-30T14:24:50;4.45;;;2.53;;
52158;SDS011;38145;53.182;6.284;2023-04-30T14:27:16;4.03;;;1.85;;
52158;SDS011;38145;53.182;6.284;2023-04-30T14:29:42;3.70;;;2.05;;
52158;SDS011;38145;53.182;6.284;2023-04-30T14:32:08;4.65;;;2.17;;
52158;SDS011;38145;53.182;6.284;2023-04-30T14:34:34;6.68;;;2.30;;
52158;SDS011;38145;53.182;6.284;2023-04-30T14:37:01;4.60;;;2.10;;
52158;SDS011;38145;53.182;6.284;2023-04-30T14:39:27;5.60;;;2.30;;
52158;SDS011;38145;53.182;6.284;2023-04-30T14:41:53;5.28;;;2.60;;
52158;SDS011;38145;53.182;6.284;2023-04-30T14:44:20;5.10;;;2.40;;
52158;SDS011;38145;53.182;6.284;2023-04-30T14:46:48;5.13;;;2.35;;
52158;SDS011;38145;53.182;6.284;2023-04-30T14:49:16;4.65;;;2.10;;
52158;SDS011;38145;53.182;6.284;2023-04-30T14:51:42;4.90;;;2.40;;
52158;SDS011;38145;53.182;6.284;2023-04-30T14:54:08;5.50;;;2.33;;
52158;SDS011;38145;53.182;6.284;2023-04-30T14:56:34;5.35;;;2.72;;
52158;SDS011;38145;53.182;6.284;2023-04-30T14:59:00;4.35;;;2.15;;
52158;SDS011;38145;53.182;6.284;2023-04-30T15:01:26;5.22;;;2.55;;
52158;SDS011;38145;53.182;6.284;2023-04-30T15:03:54;6.35;;;2.50;;
52158;SDS011;38145;53.182;6.284;2023-04-30T15:06:21;2.92;;;2.17;;
52158;SDS011;38145;53.182;6.284;2023-04-30T15:08:46;7.10;;;2.20;;
52158;SDS011;38145;53.182;6.284;2023-04-30T15:11:12;2.60;;;1.88;;
52158;SDS011;38145;53.182;6.284;2023-04-30T15:13:38;3.97;;;2.47;;
52158;SDS011;38145;53.182;6.284;2023-04-30T15:16:06;4.88;;;2.30;;
52158;SDS011;38145;53.182;6.284;2023-04-30T15:18:32;5.90;;;1.90;;
52158;SDS011;38145;53.182;6.284;2023-04-30T15:20:58;5.70;;;2.97;;